sensor_id;sensor_type;location;lat;lon;timestamp;temperature;humidity
12452;DHT22;6291;48.924;12.204;2022-09-03T00:03:19;13.00;99.90
12452;DHT22;6291;48.924;12.204;2022-09-03T00:08:29;12.70;99.90
12452;DHT22;6291;48.924;12.204;2022-09-03T00:13:38;12.70;99.90
12452;DHT22;6291;48.924;12.204;2022-09-03T00:18:44;12.60;99.90
12452;DHT22;6291;48.924;12.204;2022-09-03T00:23:51;12.50;99.90
12452;DHT22;6291;48.924;12.204;2022-09-03T00:29:00;12.40;99.90
12452;DHT22;6291;48.924;12.204;2022-09-03T00:34:10;12.40;99.90
12452;DHT22;6291;48.924;12.204;2022-09-03T00:39:19;12.30;99.90
12452;DHT22;6291;48.924;12.204;2022-09-03T00:44:43;12.50;99.90
12452;DHT22;6291;48.924;12.204;2022-09-03T00:50:00;12.20;99.90
12452;DHT22;6291;48.924;12.204;2022-09-03T00:55:15;12.20;99.90
12452;DHT22;6291;48.924;12.204;2022-09-03T01:00:22;12.20;99.90
12452;DHT22;6291;48.924;12.204;2022-09-03T01:11:13;11.80;99.90
12452;DHT22;6291;48.924;12.204;2022-09-03T01:16:25;11.80;99.90
12452;DHT22;6291;48.924;12.204;2022-09-03T01:21:47;11.70;99.90
12452;DHT22;6291;48.924;12.204;2022-09-03T01:27:14;11.80;99.90
12452;DHT22;6291;48.924;12.204;2022-09-03T01:32:28;11.80;99.90
12452;DHT22;6291;48.924;12.204;2022-09-03T01:37:43;11.90;99.90
12452;DHT22;6291;48.924;12.204;2022-09-03T01:42:58;11.90;99.90
12452;DHT22;6291;48.924;12.204;2022-09-03T01:48:14;11.80;99.90
12452;DHT22;6291;48.924;12.204;2022-09-03T01:53:31;11.80;99.90
12452;DHT22;6291;48.924;12.204;2022-09-03T01:58:40;11.70;99.90
12452;DHT22;6291;48.924;12.204;2022-09-03T02:03:47;11.60;99.90
12452;DHT22;6291;48.924;12.204;2022-09-03T02:08:50;11.60;99.90
12452;DHT22;6291;48.924;12.204;2022-09-03T02:13:55;11.60;99.90
12452;DHT22;6291;48.924;12.204;2022-09-03T02:19:03;11.70;99.90
12452;DHT22;6291;48.924;12.204;2022-09-03T02:24:08;11.70;99.90
12452;DHT22;6291;48.924;12.204;2022-09-03T02:29:12;11.60;99.90
12452;DHT22;6291;48.924;12.204;2022-09-03T02:34:17;16.20;99.90
12452;DHT22;6291;48.924;12.204;2022-09-03T02:39:20;11.80;99.90
12452;DHT22;6291;48.924;12.204;2022-09-03T02:44:26;11.80;99.90
12452;DHT22;6291;48.924;12.204;2022-09-03T02:49:34;11.80;99.90
12452;DHT22;6291;48.924;12.204;2022-09-03T02:54:38;14.10;99.90
12452;DHT22;6291;48.924;12.204;2022-09-03T02:59:42;11.80;99.90
12452;DHT22;6291;48.924;12.204;2022-09-03T03:04:48;11.90;99.90
12452;DHT22;6291;48.924;12.204;2022-09-03T03:09:51;12.20;99.90
12452;DHT22;6291;48.924;12.204;2022-09-03T03:14:55;12.40;99.90
12452;DHT22;6291;48.924;12.204;2022-09-03T03:19:59;12.40;99.90
12452;DHT22;6291;48.924;12.204;2022-09-03T03:25:03;12.30;99.90
12452;DHT22;6291;48.924;12.204;2022-09-03T03:30:08;12.30;99.90
12452;DHT22;6291;48.924;12.204;2022-09-03T03:35:13;12.30;99.90
12452;DHT22;6291;48.924;12.204;2022-09-03T03:40:16;12.30;99.90
12452;DHT22;6291;48.924;12.204;2022-09-03T03:45:21;12.20;99.90
12452;DHT22;6291;48.924;12.204;2022-09-03T03:50:26;12.20;99.90
12452;DHT22;6291;48.924;12.204;2022-09-03T03:55:30;12.10;99.90
12452;DHT22;6291;48.924;12.204;2022-09-03T04:00:36;12.10;99.90
12452;DHT22;6291;48.924;12.204;2022-09-03T04:05:41;11.70;99.90
12452;DHT22;6291;48.924;12.204;2022-09-03T04:10:49;11.80;99.90
12452;DHT22;6291;48.924;12.204;2022-09-03T04:15:59;11.90;99.90
12452;DHT22;6291;48.924;12.204;2022-09-03T04:21:06;11.60;99.90
12452;DHT22;6291;48.924;12.204;2022-09-03T04:26:12;11.70;99.90
12452;DHT22;6291;48.924;12.204;2022-09-03T04:31:16;11.60;99.90
12452;DHT22;6291;48.924;12.204;2022-09-03T04:36:23;11.70;99.90
12452;DHT22;6291;48.924;12.204;2022-09-03T04:41:28;11.60;99.90
12452;DHT22;6291;48.924;12.204;2022-09-03T04:46:32;11.50;99.90
12452;DHT22;6291;48.924;12.204;2022-09-03T04:51:36;11.50;99.90
12452;DHT22;6291;48.924;12.204;2022-09-03T04:56:40;11.40;99.90
12452;DHT22;6291;48.924;12.204;2022-09-03T05:01:44;11.50;99.90
12452;DHT22;6291;48.924;12.204;2022-09-03T05:06:49;11.40;99.90
12452;DHT22;6291;48.924;12.204;2022-09-03T05:11:52;11.50;99.90
12452;DHT22;6291;48.924;12.204;2022-09-03T05:16:56;11.50;99.90
12452;DHT22;6291;48.924;12.204;2022-09-03T05:22:00;11.70;99.90
12452;DHT22;6291;48.924;12.204;2022-09-03T05:27:04;11.80;99.90
12452;DHT22;6291;48.924;12.204;2022-09-03T05:32:07;12.00;99.90
12452;DHT22;6291;48.924;12.204;2022-09-03T05:37:12;12.70;99.90
12452;DHT22;6291;48.924;12.204;2022-09-03T05:42:15;13.60;99.90
12452;DHT22;6291;48.924;12.204;2022-09-03T05:47:18;14.40;99.90
12452;DHT22;6291;48.924;12.204;2022-09-03T05:52:23;15.30;99.90
12452;DHT22;6291;48.924;12.204;2022-09-03T05:57:27;15.10;99.90
12452;DHT22;6291;48.924;12.204;2022-09-03T06:02:30;15.40;99.90
12452;DHT22;6291;48.924;12.204;2022-09-03T06:07:35;11.90;99.90
12452;DHT22;6291;48.924;12.204;2022-09-03T06:12:39;15.70;99.90
12452;DHT22;6291;48.924;12.204;2022-09-03T06:17:42;15.50;99.90
12452;DHT22;6291;48.924;12.204;2022-09-03T06:22:49;15.30;99.90
12452;DHT22;6291;48.924;12.204;2022-09-03T06:27:54;18.50;99.90
12452;DHT22;6291;48.924;12.204;2022-09-03T06:32:57;14.30;99.90
12452;DHT22;6291;48.924;12.204;2022-09-03T06:38:02;10.50;99.90
12452;DHT22;6291;48.924;12.204;2022-09-03T06:43:05;15.30;99.90
12452;DHT22;6291;48.924;12.204;2022-09-03T06:48:09;14.20;99.90
12452;DHT22;6291;48.924;12.204;2022-09-03T06:53:13;11.60;99.90
12452;DHT22;6291;48.924;12.204;2022-09-03T06:58:17;15.50;99.90
12452;DHT22;6291;48.924;12.204;2022-09-03T07:03:20;16.60;99.90
12452;DHT22;6291;48.924;12.204;2022-09-03T07:08:25;17.30;99.90
12452;DHT22;6291;48.924;12.204;2022-09-03T07:13:28;16.10;99.90
12452;DHT22;6291;48.924;12.204;2022-09-03T07:18:32;16.20;99.90
12452;DHT22;6291;48.924;12.204;2022-09-03T07:23:38;17.10;99.90
12452;DHT22;6291;48.924;12.204;2022-09-03T07:28:43;18.80;99.30
12452;DHT22;6291;48.924;12.204;2022-09-03T07:33:47;19.50;91.40
12452;DHT22;6291;48.924;12.204;2022-09-03T07:38:54;20.40;85.20
12452;DHT22;6291;48.924;12.204;2022-09-03T07:43:58;17.50;90.70
12452;DHT22;6291;48.924;12.204;2022-09-03T07:49:06;16.40;94.00
12452;DHT22;6291;48.924;12.204;2022-09-03T07:54:12;16.70;93.90
12452;DHT22;6291;48.924;12.204;2022-09-03T07:59:15;16.90;94.20
12452;DHT22;6291;48.924;12.204;2022-09-03T08:04:19;18.60;91.10
12452;DHT22;6291;48.924;12.204;2022-09-03T08:09:24;20.00;90.60
12452;DHT22;6291;48.924;12.204;2022-09-03T08:14:28;21.60;79.90
12452;DHT22;6291;48.924;12.204;2022-09-03T08:19:32;21.60;78.40
12452;DHT22;6291;48.924;12.204;2022-09-03T08:24:37;19.90;80.60
12452;DHT22;6291;48.924;12.204;2022-09-03T08:29:40;20.20;81.50
12452;DHT22;6291;48.924;12.204;2022-09-03T08:34:44;20.80;79.90
12452;DHT22;6291;48.924;12.204;2022-09-03T08:39:49;20.50;79.10
12452;DHT22;6291;48.924;12.204;2022-09-03T08:44:54;21.10;78.10
12452;DHT22;6291;48.924;12.204;2022-09-03T08:50:03;16.90;75.70
12452;DHT22;6291;48.924;12.204;2022-09-03T08:55:21;20.60;78.60
12452;DHT22;6291;48.924;12.204;2022-09-03T09:00:34;21.50;76.70
12452;DHT22;6291;48.924;12.204;2022-09-03T09:05:44;21.40;73.50
12452;DHT22;6291;48.924;12.204;2022-09-03T09:11:03;24.00;77.80
12452;DHT22;6291;48.924;12.204;2022-09-03T09:16:13;20.30;76.30
12452;DHT22;6291;48.924;12.204;2022-09-03T09:21:21;21.20;75.60
12452;DHT22;6291;48.924;12.204;2022-09-03T09:26:30;22.00;71.60
12452;DHT22;6291;48.924;12.204;2022-09-03T09:31:34;21.70;74.80
12452;DHT22;6291;48.924;12.204;2022-09-03T09:36:41;23.50;68.30
12452;DHT22;6291;48.924;12.204;2022-09-03T09:41:57;22.90;68.90
12452;DHT22;6291;48.924;12.204;2022-09-03T09:47:04;23.00;69.60
12452;DHT22;6291;48.924;12.204;2022-09-03T09:52:10;22.80;68.70
12452;DHT22;6291;48.924;12.204;2022-09-03T09:57:16;22.80;69.10
12452;DHT22;6291;48.924;12.204;2022-09-03T10:02:24;22.90;69.90
12452;DHT22;6291;48.924;12.204;2022-09-03T10:07:30;23.30;69.90
12452;DHT22;6291;48.924;12.204;2022-09-03T10:12:40;25.80;61.20
12452;DHT22;6291;48.924;12.204;2022-09-03T10:17:55;24.00;64.40
12452;DHT22;6291;48.924;12.204;2022-09-03T10:23:06;25.10;62.90
12452;DHT22;6291;48.924;12.204;2022-09-03T10:28:13;26.50;58.80
12452;DHT22;6291;48.924;12.204;2022-09-03T10:33:23;26.60;59.70
12452;DHT22;6291;48.924;12.204;2022-09-03T10:38:32;27.30;54.60
12452;DHT22;6291;48.924;12.204;2022-09-03T10:43:50;28.10;52.60
12452;DHT22;6291;48.924;12.204;2022-09-03T10:49:11;26.70;55.10
12452;DHT22;6291;48.924;12.204;2022-09-03T10:54:35;25.40;57.00
12452;DHT22;6291;48.924;12.204;2022-09-03T10:59:53;27.40;58.20
12452;DHT22;6291;48.924;12.204;2022-09-03T11:05:01;25.60;56.70
12452;DHT22;6291;48.924;12.204;2022-09-03T11:10:13;23.50;61.00
12452;DHT22;6291;48.924;12.204;2022-09-03T11:15:23;22.80;64.40
12452;DHT22;6291;48.924;12.204;2022-09-03T11:20:31;22.80;65.70
12452;DHT22;6291;48.924;12.204;2022-09-03T11:25:41;24.90;59.70
12452;DHT22;6291;48.924;12.204;2022-09-03T11:31:02;27.90;62.70
12452;DHT22;6291;48.924;12.204;2022-09-03T11:36:07;24.60;59.70
12452;DHT22;6291;48.924;12.204;2022-09-03T11:41:13;24.70;62.00
12452;DHT22;6291;48.924;12.204;2022-09-03T11:46:29;24.60;61.50
12452;DHT22;6291;48.924;12.204;2022-09-03T11:51:34;23.60;63.40
12452;DHT22;6291;48.924;12.204;2022-09-03T11:56:40;22.60;65.70
12452;DHT22;6291;48.924;12.204;2022-09-03T12:01:50;24.50;62.30
12452;DHT22;6291;48.924;12.204;2022-09-03T12:07:05;26.80;55.90
12452;DHT22;6291;48.924;12.204;2022-09-03T12:12:23;25.50;54.90
12452;DHT22;6291;48.924;12.204;2022-09-03T12:17:34;25.70;58.30
12452;DHT22;6291;48.924;12.204;2022-09-03T12:22:44;25.80;57.90
12452;DHT22;6291;48.924;12.204;2022-09-03T12:27:48;24.80;62.30
12452;DHT22;6291;48.924;12.204;2022-09-03T12:33:02;23.70;62.90
12452;DHT22;6291;48.924;12.204;2022-09-03T12:38:07;22.70;65.40
12452;DHT22;6291;48.924;12.204;2022-09-03T12:43:16;22.00;68.20
12452;DHT22;6291;48.924;12.204;2022-09-03T12:48:52;21.90;69.60
12452;DHT22;6291;48.924;12.204;2022-09-03T12:54:16;21.90;70.50
12452;DHT22;6291;48.924;12.204;2022-09-03T12:59:20;22.70;66.80
12452;DHT22;6291;48.924;12.204;2022-09-03T13:04:29;21.70;71.90
12452;DHT22;6291;48.924;12.204;2022-09-03T13:09:37;21.60;72.80
12452;DHT22;6291;48.924;12.204;2022-09-03T13:14:42;21.90;72.70
12452;DHT22;6291;48.924;12.204;2022-09-03T13:20:19;21.50;72.30
12452;DHT22;6291;48.924;12.204;2022-09-03T13:25:29;21.50;72.90
12452;DHT22;6291;48.924;12.204;2022-09-03T13:30:47;21.50;73.40
12452;DHT22;6291;48.924;12.204;2022-09-03T13:36:02;21.80;73.10
12452;DHT22;6291;48.924;12.204;2022-09-03T13:41:10;21.70;73.90
12452;DHT22;6291;48.924;12.204;2022-09-03T13:46:22;21.60;74.50
12452;DHT22;6291;48.924;12.204;2022-09-03T13:51:29;21.10;75.10
12452;DHT22;6291;48.924;12.204;2022-09-03T13:56:49;21.00;76.70
12452;DHT22;6291;48.924;12.204;2022-09-03T14:02:11;20.90;76.80
12452;DHT22;6291;48.924;12.204;2022-09-03T14:07:20;21.10;77.50
12452;DHT22;6291;48.924;12.204;2022-09-03T14:12:36;21.30;76.50
12452;DHT22;6291;48.924;12.204;2022-09-03T14:17:47;21.20;75.90
12452;DHT22;6291;48.924;12.204;2022-09-03T14:23:04;21.20;75.20
12452;DHT22;6291;48.924;12.204;2022-09-03T14:28:14;20.90;76.70
12452;DHT22;6291;48.924;12.204;2022-09-03T14:33:25;20.90;76.40
12452;DHT22;6291;48.924;12.204;2022-09-03T14:38:39;21.00;76.90
12452;DHT22;6291;48.924;12.204;2022-09-03T14:44:06;21.40;76.40
12452;DHT22;6291;48.924;12.204;2022-09-03T14:55:12;21.50;74.90
12452;DHT22;6291;48.924;12.204;2022-09-03T15:00:18;21.40;76.00
12452;DHT22;6291;48.924;12.204;2022-09-03T15:05:43;21.10;78.50
12452;DHT22;6291;48.924;12.204;2022-09-03T15:10:56;21.40;77.50
12452;DHT22;6291;48.924;12.204;2022-09-03T15:16:12;21.90;76.60
12452;DHT22;6291;48.924;12.204;2022-09-03T15:21:27;21.70;77.40
12452;DHT22;6291;48.924;12.204;2022-09-03T15:26:50;21.30;77.30
12452;DHT22;6291;48.924;12.204;2022-09-03T15:32:04;21.10;80.20
12452;DHT22;6291;48.924;12.204;2022-09-03T15:37:12;21.10;78.50
12452;DHT22;6291;48.924;12.204;2022-09-03T15:42:26;21.20;81.50
12452;DHT22;6291;48.924;12.204;2022-09-03T15:47:47;23.30;74.10
12452;DHT22;6291;48.924;12.204;2022-09-03T15:52:59;24.90;71.00
12452;DHT22;6291;48.924;12.204;2022-09-03T15:58:13;26.90;64.30
12452;DHT22;6291;48.924;12.204;2022-09-03T16:22:46;21.90;77.60
12452;DHT22;6291;48.924;12.204;2022-09-03T17:19:00;20.20;89.20
12452;DHT22;6291;48.924;12.204;2022-09-03T17:24:26;20.00;91.80
12452;DHT22;6291;48.924;12.204;2022-09-03T17:29:45;19.70;93.90
12452;DHT22;6291;48.924;12.204;2022-09-03T17:35:05;19.60;96.40
12452;DHT22;6291;48.924;12.204;2022-09-03T17:40:27;19.50;98.50
12452;DHT22;6291;48.924;12.204;2022-09-03T17:45:40;19.30;99.90
12452;DHT22;6291;48.924;12.204;2022-09-03T17:50:50;19.00;99.90
12452;DHT22;6291;48.924;12.204;2022-09-03T17:55:59;18.90;99.90
12452;DHT22;6291;48.924;12.204;2022-09-03T18:01:11;18.90;99.90
12452;DHT22;6291;48.924;12.204;2022-09-03T18:06:27;18.90;99.90
12452;DHT22;6291;48.924;12.204;2022-09-03T18:11:35;18.70;99.90
12452;DHT22;6291;48.924;12.204;2022-09-03T18:16:46;18.60;99.90
12452;DHT22;6291;48.924;12.204;2022-09-03T18:21:51;18.50;99.90
12452;DHT22;6291;48.924;12.204;2022-09-03T18:27:16;15.20;99.90
12452;DHT22;6291;48.924;12.204;2022-09-03T18:32:38;18.40;99.90
12452;DHT22;6291;48.924;12.204;2022-09-03T18:38:01;18.40;99.90
12452;DHT22;6291;48.924;12.204;2022-09-03T18:43:29;18.30;99.90
12452;DHT22;6291;48.924;12.204;2022-09-03T18:48:59;18.30;99.90
12452;DHT22;6291;48.924;12.204;2022-09-03T18:54:31;18.20;99.90
12452;DHT22;6291;48.924;12.204;2022-09-03T19:00:11;18.20;99.90
12452;DHT22;6291;48.924;12.204;2022-09-03T19:05:41;18.20;99.90
12452;DHT22;6291;48.924;12.204;2022-09-03T19:11:09;18.10;99.90
12452;DHT22;6291;48.924;12.204;2022-09-03T19:16:42;18.10;99.90
12452;DHT22;6291;48.924;12.204;2022-09-03T19:22:07;18.00;99.90
12452;DHT22;6291;48.924;12.204;2022-09-03T19:27:33;18.00;99.90
12452;DHT22;6291;48.924;12.204;2022-09-03T19:33:08;17.90;99.90
12452;DHT22;6291;48.924;12.204;2022-09-03T19:38:48;17.90;99.90
12452;DHT22;6291;48.924;12.204;2022-09-03T19:44:28;17.70;99.90
12452;DHT22;6291;48.924;12.204;2022-09-03T19:49:59;17.60;99.90
12452;DHT22;6291;48.924;12.204;2022-09-03T19:55:26;17.50;99.90
12452;DHT22;6291;48.924;12.204;2022-09-03T20:00:48;17.30;99.90
12452;DHT22;6291;48.924;12.204;2022-09-03T20:06:09;17.30;99.90
12452;DHT22;6291;48.924;12.204;2022-09-03T20:11:31;17.20;99.90
12452;DHT22;6291;48.924;12.204;2022-09-03T20:16:41;17.10;99.90
12452;DHT22;6291;48.924;12.204;2022-09-03T20:21:49;17.10;99.90
12452;DHT22;6291;48.924;12.204;2022-09-03T20:27:06;17.00;99.90
12452;DHT22;6291;48.924;12.204;2022-09-03T20:32:18;18.20;99.90
12452;DHT22;6291;48.924;12.204;2022-09-03T20:37:32;16.90;99.90
12452;DHT22;6291;48.924;12.204;2022-09-03T20:42:50;16.80;99.90
12452;DHT22;6291;48.924;12.204;2022-09-03T20:48:05;16.70;99.90
12452;DHT22;6291;48.924;12.204;2022-09-03T20:58:57;16.60;99.90
12452;DHT22;6291;48.924;12.204;2022-09-03T21:04:14;16.50;99.90
12452;DHT22;6291;48.924;12.204;2022-09-03T21:09:26;16.50;99.90
12452;DHT22;6291;48.924;12.204;2022-09-03T21:14:36;16.50;99.90
12452;DHT22;6291;48.924;12.204;2022-09-03T21:19:52;16.60;99.90
12452;DHT22;6291;48.924;12.204;2022-09-03T21:25:01;20.90;99.90
12452;DHT22;6291;48.924;12.204;2022-09-03T21:30:08;16.20;99.90
12452;DHT22;6291;48.924;12.204;2022-09-03T21:35:18;16.10;99.90
12452;DHT22;6291;48.924;12.204;2022-09-03T21:40:26;16.10;99.90
12452;DHT22;6291;48.924;12.204;2022-09-03T21:45:37;15.90;99.90
12452;DHT22;6291;48.924;12.204;2022-09-03T21:50:49;15.80;99.90
12452;DHT22;6291;48.924;12.204;2022-09-03T21:56:19;15.90;99.90
12452;DHT22;6291;48.924;12.204;2022-09-03T22:01:32;15.80;99.90
12452;DHT22;6291;48.924;12.204;2022-09-03T22:06:43;15.80;99.90
12452;DHT22;6291;48.924;12.204;2022-09-03T22:11:54;15.70;99.90
12452;DHT22;6291;48.924;12.204;2022-09-03T22:17:04;15.70;99.90
12452;DHT22;6291;48.924;12.204;2022-09-03T22:22:17;15.80;99.90
12452;DHT22;6291;48.924;12.204;2022-09-03T22:27:27;15.70;99.90
12452;DHT22;6291;48.924;12.204;2022-09-03T22:32:47;15.70;99.90
12452;DHT22;6291;48.924;12.204;2022-09-03T22:38:03;15.70;99.90
12452;DHT22;6291;48.924;12.204;2022-09-03T22:43:22;15.60;99.90
12452;DHT22;6291;48.924;12.204;2022-09-03T22:48:39;15.50;99.90
12452;DHT22;6291;48.924;12.204;2022-09-03T22:54:02;15.50;99.90
12452;DHT22;6291;48.924;12.204;2022-09-03T22:59:12;15.40;99.90
12452;DHT22;6291;48.924;12.204;2022-09-03T23:04:21;15.40;99.90
12452;DHT22;6291;48.924;12.204;2022-09-03T23:09:34;15.40;99.90
12452;DHT22;6291;48.924;12.204;2022-09-03T23:14:41;15.40;99.90
12452;DHT22;6291;48.924;12.204;2022-09-03T23:19:53;15.50;99.90
12452;DHT22;6291;48.924;12.204;2022-09-03T23:25:04;15.30;99.90
12452;DHT22;6291;48.924;12.204;2022-09-03T23:30:09;15.20;99.90
12452;DHT22;6291;48.924;12.204;2022-09-03T23:35:14;15.30;99.90
12452;DHT22;6291;48.924;12.204;2022-09-03T23:40:30;15.20;99.90
12452;DHT22;6291;48.924;12.204;2022-09-03T23:45:41;15.10;99.90
12452;DHT22;6291;48.924;12.204;2022-09-03T23:50:53;15.10;99.90
12452;DHT22;6291;48.924;12.204;2022-09-03T23:56:08;15.00;99.90
